Hauptseite
METAR-TAF:

METAR-TAF

Flughäfen :

Khartum, Sudan

Flughafen Khartum

Breite: 15-36N, Länge: 032-33E, Höhe: 382 m

Beobachtung

Neuester Wetterbericht von vor 22 Minuten, um 23:30 UTC
Wind 9 kt aus Nord
Temperatur 21°C
Luftfeuchtigkeit 28%
Luftdruck 1012 hPa
Sichtweite 10 km oder mehr
keine Wolken unter 1500 m und keine Kumulonimbus oder Gewitterwolken

METAR: HSSS 172330Z 35009KT CAVOK 21/02 Q1012 NOSIG

Zeit: 02:52 (23:52 UTC)

Prognose

Neuester Wetterbericht von vor 52 Minuten, um 23:00 UTC
Gültige Prognose vom 18 um 00 UTC bis 19 um 06 UTC
Wind 10 kt aus Nord, Böen bis zu 20 kt
Sichtweite 10 km oder mehr
keine Wolken unter 1500 m und keine Kumulonimbus oder Gewitterwolken
Zeitweise
vom 18 um 03 UTC bis 18 um 06 UTC
Sichtweite: 6000 m

TAF: HSSS 172300Z 1800/1906 36010G20KT CAVOK TEMPO 1803/1806 6000

Wetterbeobachtungen und Prognosen von mehr als 4000 Flughäfen (METAR und TAF Bericht).

Die verfügbaren Stationen werden durch gelbe und rote Markierungen auf der Karte dargestellt.

Führen Sie die Maus auf sie, um den Namen der Station zu sehen.

Darauf klicken, um die Beobachtung von Wetterbeobachtungen und Prognosen zu sehen.

Um die Karte zu ändern : klicken Sie auf den grünen Tasten mit einem schwarzen Kreuz Zum Vergrößern, auf den grünen Button mit einem Gedankenstrich zu verkleinern, oder auf die grünen Pfeile für benachbarte Karten.


METAR-TAF: